sensor_id;sensor_type;location;lat;lon;timestamp;pressure;altitude;pressure_sealevel;temperature;humidity
74613;BME280;63119;51.788;8.824;2023-05-20T00:00:49;100833.03;;;13.87;55.68
74613;BME280;63119;51.788;8.824;2023-05-20T00:03:15;100825.03;;;13.87;55.92
74613;BME280;63119;51.788;8.824;2023-05-20T00:05:41;100828.78;;;13.85;55.96
74613;BME280;63119;51.788;8.824;2023-05-20T00:08:06;100814.28;;;13.76;56.35
74613;BME280;63119;51.788;8.824;2023-05-20T00:10:34;100815.88;;;13.79;55.91
74613;BME280;63119;51.788;8.824;2023-05-20T00:12:59;100804.59;;;13.75;56.16
74613;BME280;63119;51.788;8.824;2023-05-20T00:15:24;100807.78;;;13.67;56.82
74613;BME280;63119;51.788;8.824;2023-05-20T00:17:49;100807.03;;;13.65;56.56
74613;BME280;63119;51.788;8.824;2023-05-20T00:20:15;100809.69;;;13.65;56.64
74613;BME280;63119;51.788;8.824;2023-05-20T00:22:40;100806.50;;;13.60;56.91
74613;BME280;63119;51.788;8.824;2023-05-20T00:25:06;100799.56;;;13.58;56.71
74613;BME280;63119;51.788;8.824;2023-05-20T00:27:31;100803.50;;;13.52;56.62
74613;BME280;63119;51.788;8.824;2023-05-20T00:29:56;100797.53;;;13.49;56.93
74613;BME280;63119;51.788;8.824;2023-05-20T00:32:21;100792.22;;;13.49;56.92
74613;BME280;63119;51.788;8.824;2023-05-20T00:34:56;100794.31;;;13.44;57.23
74613;BME280;63119;51.788;8.824;2023-05-20T00:37:22;100796.44;;;13.39;57.70
74613;BME280;63119;51.788;8.824;2023-05-20T00:39:48;100805.56;;;13.35;57.54
74613;BME280;63119;51.788;8.824;2023-05-20T00:42:39;100806.53;;;13.34;58.29
74613;BME280;63119;51.788;8.824;2023-05-20T00:45:05;100805.56;;;13.35;58.37
74613;BME280;63119;51.788;8.824;2023-05-20T00:47:32;100803.31;;;13.29;58.45
74613;BME280;63119;51.788;8.824;2023-05-20T00:50:00;100800.66;;;13.29;57.94
74613;BME280;63119;51.788;8.824;2023-05-20T00:52:26;100804.28;;;13.28;58.56
74613;BME280;63119;51.788;8.824;2023-05-20T00:54:53;100807.13;;;13.25;58.19
74613;BME280;63119;51.788;8.824;2023-05-20T00:57:19;100804.69;;;13.22;58.27
74613;BME280;63119;51.788;8.824;2023-05-20T00:59:44;100800.63;;;13.02;59.14
74613;BME280;63119;51.788;8.824;2023-05-20T01:02:10;100796.34;;;13.13;58.66
74613;BME280;63119;51.788;8.824;2023-05-20T01:04:35;100800.25;;;13.08;58.73
74613;BME280;63119;51.788;8.824;2023-05-20T01:07:02;100793.59;;;13.15;58.74
74613;BME280;63119;51.788;8.824;2023-05-20T01:09:29;100790.28;;;13.11;58.67
74613;BME280;63119;51.788;8.824;2023-05-20T01:14:28;100791.22;;;13.10;59.34
74613;BME280;63119;51.788;8.824;2023-05-20T01:16:57;100788.19;;;13.02;59.41
74613;BME280;63119;51.788;8.824;2023-05-20T01:19:41;100776.06;;;12.98;59.67
74613;BME280;63119;51.788;8.824;2023-05-20T01:22:12;100786.47;;;13.01;59.31
74613;BME280;63119;51.788;8.824;2023-05-20T01:24:41;100785.25;;;13.07;59.41
74613;BME280;63119;51.788;8.824;2023-05-20T01:27:08;100780.97;;;13.04;59.62
74613;BME280;63119;51.788;8.824;2023-05-20T01:29:38;100780.78;;;13.07;59.77
74613;BME280;63119;51.788;8.824;2023-05-20T01:32:06;100791.06;;;12.99;59.65
74613;BME280;63119;51.788;8.824;2023-05-20T01:34:34;100786.63;;;12.86;60.28
74613;BME280;63119;51.788;8.824;2023-05-20T01:37:02;100791.38;;;12.95;60.82
74613;BME280;63119;51.788;8.824;2023-05-20T01:39:29;100788.78;;;12.93;60.16
74613;BME280;63119;51.788;8.824;2023-05-20T01:41:55;100783.69;;;12.90;60.87
74613;BME280;63119;51.788;8.824;2023-05-20T01:44:21;100789.06;;;12.89;60.23
74613;BME280;63119;51.788;8.824;2023-05-20T01:46:49;100787.09;;;12.92;60.52
74613;BME280;63119;51.788;8.824;2023-05-20T01:49:15;100780.44;;;12.99;60.52
74613;BME280;63119;51.788;8.824;2023-05-20T01:51:40;100778.38;;;12.90;61.10
74613;BME280;63119;51.788;8.824;2023-05-20T01:54:05;100772.47;;;12.99;60.99
74613;BME280;63119;51.788;8.824;2023-05-20T01:56:31;100766.69;;;12.93;61.40
74613;BME280;63119;51.788;8.824;2023-05-20T01:58:56;100775.72;;;12.90;61.18
74613;BME280;63119;51.788;8.824;2023-05-20T02:01:21;100767.34;;;12.96;61.43
74613;BME280;63119;51.788;8.824;2023-05-20T02:03:46;100767.47;;;12.95;61.33
74613;BME280;63119;51.788;8.824;2023-05-20T02:06:12;100768.41;;;12.94;61.63
74613;BME280;63119;51.788;8.824;2023-05-20T02:08:37;100761.38;;;12.93;61.39
74613;BME280;63119;51.788;8.824;2023-05-20T02:11:02;100762.81;;;12.84;62.58
74613;BME280;63119;51.788;8.824;2023-05-20T02:13:28;100761.72;;;12.74;61.91
74613;BME280;63119;51.788;8.824;2023-05-20T02:15:53;100756.00;;;12.80;62.36
74613;BME280;63119;51.788;8.824;2023-05-20T02:18:18;100753.81;;;12.87;61.81
74613;BME280;63119;51.788;8.824;2023-05-20T02:20:44;100752.91;;;13.00;61.86
74613;BME280;63119;51.788;8.824;2023-05-20T02:23:09;100754.88;;;13.11;61.84
74613;BME280;63119;51.788;8.824;2023-05-20T02:25:34;100758.59;;;13.08;61.45
74613;BME280;63119;51.788;8.824;2023-05-20T02:28:00;100755.31;;;12.91;61.79
74613;BME280;63119;51.788;8.824;2023-05-20T02:30:26;100755.84;;;12.96;61.24
74613;BME280;63119;51.788;8.824;2023-05-20T02:32:51;100759.38;;;12.96;61.74
74613;BME280;63119;51.788;8.824;2023-05-20T02:35:16;100756.91;;;12.93;61.42
74613;BME280;63119;51.788;8.824;2023-05-20T02:37:41;100753.31;;;12.94;62.14
74613;BME280;63119;51.788;8.824;2023-05-20T02:40:09;100750.28;;;12.86;61.95
74613;BME280;63119;51.788;8.824;2023-05-20T02:42:34;100750.66;;;12.94;61.78
74613;BME280;63119;51.788;8.824;2023-05-20T02:44:59;100749.78;;;13.08;61.16
74613;BME280;63119;51.788;8.824;2023-05-20T02:47:26;100743.22;;;12.99;62.02
74613;BME280;63119;51.788;8.824;2023-05-20T02:49:51;100742.28;;;13.00;61.69
74613;BME280;63119;51.788;8.824;2023-05-20T02:52:17;100733.75;;;12.95;62.21
74613;BME280;63119;51.788;8.824;2023-05-20T02:54:42;100741.84;;;12.94;61.81
74613;BME280;63119;51.788;8.824;2023-05-20T02:57:07;100733.75;;;12.95;62.48
74613;BME280;63119;51.788;8.824;2023-05-20T02:59:32;100732.81;;;12.96;62.50
74613;BME280;63119;51.788;8.824;2023-05-20T03:01:57;100739.38;;;12.91;62.98
74613;BME280;63119;51.788;8.824;2023-05-20T03:04:23;100736.41;;;12.95;62.89
74613;BME280;63119;51.788;8.824;2023-05-20T03:06:50;100732.06;;;12.94;62.85
74613;BME280;63119;51.788;8.824;2023-05-20T03:09:16;100725.44;;;12.87;63.15
74613;BME280;63119;51.788;8.824;2023-05-20T03:11:42;100723.00;;;12.84;63.13
74613;BME280;63119;51.788;8.824;2023-05-20T03:14:07;100721.66;;;12.77;63.73
74613;BME280;63119;51.788;8.824;2023-05-20T03:16:32;100736.31;;;12.70;64.41
74613;BME280;63119;51.788;8.824;2023-05-20T03:18:59;100723.47;;;12.77;63.98
74613;BME280;63119;51.788;8.824;2023-05-20T03:21:24;100730.22;;;12.82;63.32
74613;BME280;63119;51.788;8.824;2023-05-20T03:23:50;100733.81;;;12.81;63.72
74613;BME280;63119;51.788;8.824;2023-05-20T03:26:16;100731.16;;;12.81;64.08
74613;BME280;63119;51.788;8.824;2023-05-20T03:28:41;100732.81;;;12.70;64.61
74613;BME280;63119;51.788;8.824;2023-05-20T03:31:06;100728.16;;;12.73;64.30
74613;BME280;63119;51.788;8.824;2023-05-20T03:33:33;100723.88;;;12.71;64.37
74613;BME280;63119;51.788;8.824;2023-05-20T03:35:59;100732.22;;;12.79;64.46
74613;BME280;63119;51.788;8.824;2023-05-20T03:38:24;100747.28;;;12.78;64.30
74613;BME280;63119;51.788;8.824;2023-05-20T03:40:49;100731.44;;;12.77;64.87
74613;BME280;63119;51.788;8.824;2023-05-20T03:43:14;100740.84;;;12.68;65.03
74613;BME280;63119;51.788;8.824;2023-05-20T03:45:40;100731.22;;;12.67;64.46
74613;BME280;63119;51.788;8.824;2023-05-20T03:48:05;100726.31;;;12.74;64.67
74613;BME280;63119;51.788;8.824;2023-05-20T03:50:31;100721.88;;;12.74;64.83
74613;BME280;63119;51.788;8.824;2023-05-20T03:52:56;100719.03;;;12.77;64.42
74613;BME280;63119;51.788;8.824;2023-05-20T03:55:21;100716.75;;;12.71;65.32
74613;BME280;63119;51.788;8.824;2023-05-20T03:57:47;100718.06;;;12.78;64.92
74613;BME280;63119;51.788;8.824;2023-05-20T04:00:12;100715.63;;;12.75;65.18
74613;BME280;63119;51.788;8.824;2023-05-20T04:02:38;100716.38;;;12.77;65.45
74613;BME280;63119;51.788;8.824;2023-05-20T04:05:04;100720.72;;;12.78;65.32
74613;BME280;63119;51.788;8.824;2023-05-20T04:07:29;100715.41;;;12.78;65.45
74613;BME280;63119;51.788;8.824;2023-05-20T04:09:55;100714.69;;;12.76;66.07
74613;BME280;63119;51.788;8.824;2023-05-20T04:12:20;100721.34;;;12.69;66.13
74613;BME280;63119;51.788;8.824;2023-05-20T04:14:46;100713.72;;;12.77;65.96
74613;BME280;63119;51.788;8.824;2023-05-20T04:17:14;100711.84;;;12.65;65.37
74613;BME280;63119;51.788;8.824;2023-05-20T04:19:39;100718.34;;;12.61;65.85
74613;BME280;63119;51.788;8.824;2023-05-20T04:22:04;100717.75;;;12.56;66.85
74613;BME280;63119;51.788;8.824;2023-05-20T04:24:30;100713.50;;;12.80;65.75
74613;BME280;63119;51.788;8.824;2023-05-20T04:26:55;100710.84;;;12.80;65.65
74613;BME280;63119;51.788;8.824;2023-05-20T04:29:20;100705.66;;;12.79;65.73
74613;BME280;63119;51.788;8.824;2023-05-20T04:31:47;100715.03;;;12.84;65.13
74613;BME280;63119;51.788;8.824;2023-05-20T04:34:13;100714.63;;;12.90;65.47
74613;BME280;63119;51.788;8.824;2023-05-20T04:36:38;100712.69;;;12.92;65.63
74613;BME280;63119;51.788;8.824;2023-05-20T04:39:04;100710.56;;;12.85;65.77
74613;BME280;63119;51.788;8.824;2023-05-20T04:41:30;100704.31;;;12.98;65.81
74613;BME280;63119;51.788;8.824;2023-05-20T04:43:55;100715.28;;;12.94;65.76
74613;BME280;63119;51.788;8.824;2023-05-20T04:46:25;100696.97;;;12.89;65.47
74613;BME280;63119;51.788;8.824;2023-05-20T04:48:50;100700.78;;;12.85;65.86
74613;BME280;63119;51.788;8.824;2023-05-20T04:51:16;100712.94;;;13.02;65.39
74613;BME280;63119;51.788;8.824;2023-05-20T04:53:41;100700.00;;;12.97;66.54
74613;BME280;63119;51.788;8.824;2023-05-20T04:56:07;100708.00;;;12.83;66.45
74613;BME280;63119;51.788;8.824;2023-05-20T04:58:32;100709.09;;;12.93;66.81
74613;BME280;63119;51.788;8.824;2023-05-20T05:00:58;100708.69;;;12.99;65.99
74613;BME280;63119;51.788;8.824;2023-05-20T05:03:23;100705.16;;;13.13;66.18
74613;BME280;63119;51.788;8.824;2023-05-20T05:05:48;100697.88;;;13.02;66.26
74613;BME280;63119;51.788;8.824;2023-05-20T05:08:14;100698.22;;;13.10;66.58
74613;BME280;63119;51.788;8.824;2023-05-20T05:10:39;100698.94;;;13.39;65.91
74613;BME280;63119;51.788;8.824;2023-05-20T05:13:05;100694.63;;;13.11;66.52
74613;BME280;63119;51.788;8.824;2023-05-20T05:15:30;100699.84;;;13.26;65.86
74613;BME280;63119;51.788;8.824;2023-05-20T05:17:55;100695.94;;;13.19;66.33
74613;BME280;63119;51.788;8.824;2023-05-20T05:20:21;100692.84;;;13.25;66.08
74613;BME280;63119;51.788;8.824;2023-05-20T05:22:46;100685.28;;;13.19;66.94
74613;BME280;63119;51.788;8.824;2023-05-20T05:25:12;100695.75;;;13.07;66.49
74613;BME280;63119;51.788;8.824;2023-05-20T05:27:38;100697.31;;;13.24;67.22
74613;BME280;63119;51.788;8.824;2023-05-20T05:30:05;100688.09;;;13.03;66.73
74613;BME280;63119;51.788;8.824;2023-05-20T05:32:31;100693.19;;;13.06;67.57
74613;BME280;63119;51.788;8.824;2023-05-20T05:34:57;100687.59;;;13.10;67.50
74613;BME280;63119;51.788;8.824;2023-05-20T05:37:22;100693.31;;;13.31;66.86
74613;BME280;63119;51.788;8.824;2023-05-20T05:39:48;100698.06;;;13.39;67.02
74613;BME280;63119;51.788;8.824;2023-05-20T05:42:13;100691.47;;;13.19;67.41
74613;BME280;63119;51.788;8.824;2023-05-20T05:44:38;100690.94;;;13.27;67.09
74613;BME280;63119;51.788;8.824;2023-05-20T05:47:04;100694.22;;;13.18;66.96
74613;BME280;63119;51.788;8.824;2023-05-20T05:49:30;100698.81;;;13.28;67.40
74613;BME280;63119;51.788;8.824;2023-05-20T05:51:55;100696.88;;;13.18;67.30
74613;BME280;63119;51.788;8.824;2023-05-20T05:54:21;100698.38;;;13.22;67.79
74613;BME280;63119;51.788;8.824;2023-05-20T05:56:46;100692.44;;;13.31;67.52
74613;BME280;63119;51.788;8.824;2023-05-20T05:59:11;100692.66;;;13.28;67.56
74613;BME280;63119;51.788;8.824;2023-05-20T06:01:37;100696.56;;;13.22;67.99
74613;BME280;63119;51.788;8.824;2023-05-20T06:04:02;100685.09;;;13.22;68.02
74613;BME280;63119;51.788;8.824;2023-05-20T06:06:27;100684.78;;;13.39;67.76
74613;BME280;63119;51.788;8.824;2023-05-20T06:08:53;100683.94;;;13.38;67.95
74613;BME280;63119;51.788;8.824;2023-05-20T06:11:18;100679.03;;;13.45;67.51
74613;BME280;63119;51.788;8.824;2023-05-20T06:13:43;100690.53;;;13.33;67.33
74613;BME280;63119;51.788;8.824;2023-05-20T06:16:08;100679.88;;;13.20;68.75
74613;BME280;63119;51.788;8.824;2023-05-20T06:18:33;100694.56;;;13.38;67.84
74613;BME280;63119;51.788;8.824;2023-05-20T06:20:59;100685.22;;;13.58;67.04
74613;BME280;63119;51.788;8.824;2023-05-20T06:23:25;100690.09;;;13.39;67.85
74613;BME280;63119;51.788;8.824;2023-05-20T06:25:50;100693.09;;;13.34;67.78
74613;BME280;63119;51.788;8.824;2023-05-20T06:28:16;100675.88;;;13.40;67.49
74613;BME280;63119;51.788;8.824;2023-05-20T06:30:41;100679.69;;;13.48;67.47
74613;BME280;63119;51.788;8.824;2023-05-20T06:33:07;100686.19;;;13.57;67.65
74613;BME280;63119;51.788;8.824;2023-05-20T06:35:32;100687.53;;;13.50;68.63
74613;BME280;63119;51.788;8.824;2023-05-20T06:38:00;100686.69;;;13.62;67.90
74613;BME280;63119;51.788;8.824;2023-05-20T06:40:27;100689.50;;;13.73;67.76
74613;BME280;63119;51.788;8.824;2023-05-20T06:42:52;100696.50;;;13.74;67.50
74613;BME280;63119;51.788;8.824;2023-05-20T06:45:18;100694.25;;;13.68;67.46
74613;BME280;63119;51.788;8.824;2023-05-20T06:47:44;100693.44;;;13.67;68.15
74613;BME280;63119;51.788;8.824;2023-05-20T06:50:12;100692.72;;;14.14;66.51
74613;BME280;63119;51.788;8.824;2023-05-20T06:52:37;100693.91;;;14.10;67.32
74613;BME280;63119;51.788;8.824;2023-05-20T06:55:04;100704.31;;;14.13;66.57
74613;BME280;63119;51.788;8.824;2023-05-20T06:57:29;100710.63;;;14.12;66.33
74613;BME280;63119;51.788;8.824;2023-05-20T06:59:55;100693.97;;;14.47;66.42
74613;BME280;63119;51.788;8.824;2023-05-20T07:02:20;100709.22;;;14.19;66.22
74613;BME280;63119;51.788;8.824;2023-05-20T07:04:46;100687.03;;;14.44;65.68
74613;BME280;63119;51.788;8.824;2023-05-20T07:07:11;100682.25;;;14.73;65.35
74613;BME280;63119;51.788;8.824;2023-05-20T07:09:36;100681.81;;;15.14;64.65
74613;BME280;63119;51.788;8.824;2023-05-20T07:12:02;100687.00;;;15.04;64.47
74613;BME280;63119;51.788;8.824;2023-05-20T07:14:27;100674.97;;;14.99;64.22
74613;BME280;63119;51.788;8.824;2023-05-20T07:16:53;100670.34;;;15.36;63.79
74613;BME280;63119;51.788;8.824;2023-05-20T07:19:18;100666.56;;;15.62;62.75
74613;BME280;63119;51.788;8.824;2023-05-20T07:21:43;100651.84;;;15.45;62.77
74613;BME280;63119;51.788;8.824;2023-05-20T07:24:08;100667.06;;;15.78;63.03
74613;BME280;63119;51.788;8.824;2023-05-20T07:26:34;100650.69;;;16.16;60.88
74613;BME280;63119;51.788;8.824;2023-05-20T07:29:03;100643.94;;;16.44;61.32
74613;BME280;63119;51.788;8.824;2023-05-20T07:31:29;100637.31;;;16.81;58.68
74613;BME280;63119;51.788;8.824;2023-05-20T07:33:55;100648.63;;;15.97;60.60
74613;BME280;63119;51.788;8.824;2023-05-20T07:36:20;100642.66;;;15.60;61.21
74613;BME280;63119;51.788;8.824;2023-05-20T07:38:45;100635.28;;;15.97;61.26
74613;BME280;63119;51.788;8.824;2023-05-20T07:41:11;100635.16;;;15.99;61.13
74613;BME280;63119;51.788;8.824;2023-05-20T07:43:36;100634.44;;;15.74;61.45
74613;BME280;63119;51.788;8.824;2023-05-20T07:46:01;100622.91;;;16.07;61.38
74613;BME280;63119;51.788;8.824;2023-05-20T07:48:27;100633.25;;;16.44;59.47
74613;BME280;63119;51.788;8.824;2023-05-20T07:50:52;100619.38;;;16.61;59.58
74613;BME280;63119;51.788;8.824;2023-05-20T07:53:17;100618.75;;;16.14;59.92
74613;BME280;63119;51.788;8.824;2023-05-20T07:55:43;100620.94;;;16.09;60.12
74613;BME280;63119;51.788;8.824;2023-05-20T07:58:08;100618.09;;;16.33;60.16
74613;BME280;63119;51.788;8.824;2023-05-20T08:00:33;100615.53;;;16.42;59.02
74613;BME280;63119;51.788;8.824;2023-05-20T08:02:58;100625.34;;;16.42;58.33
74613;BME280;63119;51.788;8.824;2023-05-20T08:05:24;100616.94;;;16.15;59.62
74613;BME280;63119;51.788;8.824;2023-05-20T08:07:49;100629.47;;;16.57;59.13
74613;BME280;63119;51.788;8.824;2023-05-20T08:10:14;100635.38;;;16.72;59.08
74613;BME280;63119;51.788;8.824;2023-05-20T08:12:40;100624.03;;;17.11;57.84
74613;BME280;63119;51.788;8.824;2023-05-20T08:15:05;100639.25;;;17.00;57.89
74613;BME280;63119;51.788;8.824;2023-05-20T08:17:31;100627.59;;;16.80;57.46
74613;BME280;63119;51.788;8.824;2023-05-20T08:19:57;100627.53;;;16.91;57.47
74613;BME280;63119;51.788;8.824;2023-05-20T08:22:22;100634.47;;;17.14;57.70
74613;BME280;63119;51.788;8.824;2023-05-20T08:24:47;100618.78;;;17.30;57.87
74613;BME280;63119;51.788;8.824;2023-05-20T08:27:12;100631.59;;;17.47;57.79
74613;BME280;63119;51.788;8.824;2023-05-20T08:29:38;100630.25;;;17.42;56.48
74613;BME280;63119;51.788;8.824;2023-05-20T08:32:03;100626.56;;;17.33;57.18
74613;BME280;63119;51.788;8.824;2023-05-20T08:34:29;100636.72;;;17.39;57.28
74613;BME280;63119;51.788;8.824;2023-05-20T08:36:54;100640.00;;;17.22;56.82
74613;BME280;63119;51.788;8.824;2023-05-20T08:39:21;100623.25;;;17.20;56.80
74613;BME280;63119;51.788;8.824;2023-05-20T08:41:46;100628.44;;;17.22;57.00
74613;BME280;63119;51.788;8.824;2023-05-20T08:44:12;100629.34;;;17.53;56.31
74613;BME280;63119;51.788;8.824;2023-05-20T08:46:38;100625.97;;;17.51;56.03
74613;BME280;63119;51.788;8.824;2023-05-20T08:49:04;100627.41;;;17.34;57.18
74613;BME280;63119;51.788;8.824;2023-05-20T08:51:32;100637.19;;;17.24;57.20
74613;BME280;63119;51.788;8.824;2023-05-20T08:53:58;100631.78;;;17.56;56.34
74613;BME280;63119;51.788;8.824;2023-05-20T08:56:24;100633.50;;;17.57;55.60
74613;BME280;63119;51.788;8.824;2023-05-20T08:58:52;100625.28;;;17.79;55.90
74613;BME280;63119;51.788;8.824;2023-05-20T09:01:17;100636.28;;;17.34;56.42
74613;BME280;63119;51.788;8.824;2023-05-20T09:03:43;100637.78;;;17.69;56.76
74613;BME280;63119;51.788;8.824;2023-05-20T09:06:08;100646.16;;;17.55;55.21
74613;BME280;63119;51.788;8.824;2023-05-20T09:08:34;100648.88;;;17.23;55.95
74613;BME280;63119;51.788;8.824;2023-05-20T09:10:59;100647.69;;;17.57;56.04
74613;BME280;63119;51.788;8.824;2023-05-20T09:13:26;100640.78;;;17.55;55.14
74613;BME280;63119;51.788;8.824;2023-05-20T09:15:51;100642.13;;;18.00;55.20
74613;BME280;63119;51.788;8.824;2023-05-20T09:18:16;100646.97;;;17.76;55.05
74613;BME280;63119;51.788;8.824;2023-05-20T09:20:46;100642.13;;;17.70;55.54
74613;BME280;63119;51.788;8.824;2023-05-20T09:23:11;100633.19;;;17.80;54.94
74613;BME280;63119;51.788;8.824;2023-05-20T09:25:36;100635.41;;;17.75;54.74
74613;BME280;63119;51.788;8.824;2023-05-20T09:28:06;100633.78;;;17.84;54.83
74613;BME280;63119;51.788;8.824;2023-05-20T09:30:32;100639.03;;;17.95;54.54
74613;BME280;63119;51.788;8.824;2023-05-20T09:32:58;100646.56;;;18.11;55.28
74613;BME280;63119;51.788;8.824;2023-05-20T09:35:25;100646.16;;;17.85;54.72
74613;BME280;63119;51.788;8.824;2023-05-20T09:37:55;100647.97;;;17.84;54.20
74613;BME280;63119;51.788;8.824;2023-05-20T09:40:26;100650.44;;;17.67;55.75
74613;BME280;63119;51.788;8.824;2023-05-20T09:42:59;100647.69;;;18.08;54.56
74613;BME280;63119;51.788;8.824;2023-05-20T09:45:25;100646.69;;;17.79;55.14
74613;BME280;63119;51.788;8.824;2023-05-20T09:47:51;100641.22;;;17.80;54.69
74613;BME280;63119;51.788;8.824;2023-05-20T09:50:18;100642.88;;;17.72;54.25
74613;BME280;63119;51.788;8.824;2023-05-20T09:52:45;100646.38;;;17.52;55.43
74613;BME280;63119;51.788;8.824;2023-05-20T09:55:11;100643.66;;;17.93;55.22
74613;BME280;63119;51.788;8.824;2023-05-20T09:57:37;100643.84;;;17.71;56.01
74613;BME280;63119;51.788;8.824;2023-05-20T10:00:03;100642.19;;;17.79;55.73
74613;BME280;63119;51.788;8.824;2023-05-20T10:02:30;100650.81;;;17.83;55.35
74613;BME280;63119;51.788;8.824;2023-05-20T10:04:58;100646.88;;;17.57;55.37
74613;BME280;63119;51.788;8.824;2023-05-20T10:07:51;100651.59;;;17.53;55.84
74613;BME280;63119;51.788;8.824;2023-05-20T10:10:31;100640.19;;;18.02;54.84
74613;BME280;63119;51.788;8.824;2023-05-20T10:13:17;100638.28;;;17.83;55.42
74613;BME280;63119;51.788;8.824;2023-05-20T10:16:06;100639.44;;;18.00;54.92
74613;BME280;63119;51.788;8.824;2023-05-20T10:21:23;100639.53;;;18.19;55.39
74613;BME280;63119;51.788;8.824;2023-05-20T10:23:49;100644.28;;;18.16;54.49
74613;BME280;63119;51.788;8.824;2023-05-20T10:26:15;100631.97;;;18.43;55.78
74613;BME280;63119;51.788;8.824;2023-05-20T10:28:42;100629.50;;;18.12;54.93
74613;BME280;63119;51.788;8.824;2023-05-20T10:31:14;100629.22;;;17.84;54.93
74613;BME280;63119;51.788;8.824;2023-05-20T10:33:42;100630.78;;;17.77;55.36
74613;BME280;63119;51.788;8.824;2023-05-20T10:36:08;100647.41;;;18.11;54.57
74613;BME280;63119;51.788;8.824;2023-05-20T10:38:33;100634.84;;;17.72;55.41
74613;BME280;63119;51.788;8.824;2023-05-20T10:41:08;100635.91;;;17.90;55.22
74613;BME280;63119;51.788;8.824;2023-05-20T10:43:35;100647.50;;;17.70;54.85
74613;BME280;63119;51.788;8.824;2023-05-20T10:46:00;100627.25;;;17.77;54.69
74613;BME280;63119;51.788;8.824;2023-05-20T10:48:30;100632.69;;;18.06;54.87
74613;BME280;63119;51.788;8.824;2023-05-20T10:50:58;100634.44;;;18.16;54.10
74613;BME280;63119;51.788;8.824;2023-05-20T10:53:25;100619.31;;;18.06;53.82
74613;BME280;63119;51.788;8.824;2023-05-20T10:55:52;100628.19;;;18.06;53.48
74613;BME280;63119;51.788;8.824;2023-05-20T10:58:20;100617.84;;;18.32;53.89
74613;BME280;63119;51.788;8.824;2023-05-20T11:00:53;100608.75;;;18.82;53.34
74613;BME280;63119;51.788;8.824;2023-05-20T11:03:21;100607.19;;;18.70;52.90
74613;BME280;63119;51.788;8.824;2023-05-20T11:05:46;100618.19;;;18.96;53.52
74613;BME280;63119;51.788;8.824;2023-05-20T11:08:12;100608.00;;;18.51;53.85
74613;BME280;63119;51.788;8.824;2023-05-20T11:10:38;100613.63;;;18.29;53.66
74613;BME280;63119;51.788;8.824;2023-05-20T11:13:03;100597.50;;;18.20;55.81
74613;BME280;63119;51.788;8.824;2023-05-20T11:15:33;100615.44;;;18.29;54.04
74613;BME280;63119;51.788;8.824;2023-05-20T11:18:01;100614.53;;;18.09;55.83
74613;BME280;63119;51.788;8.824;2023-05-20T11:20:27;100601.91;;;17.81;55.04
74613;BME280;63119;51.788;8.824;2023-05-20T11:22:53;100600.75;;;17.74;55.38
74613;BME280;63119;51.788;8.824;2023-05-20T11:25:19;100591.75;;;17.75;54.49
74613;BME280;63119;51.788;8.824;2023-05-20T11:27:45;100594.44;;;17.84;54.99
74613;BME280;63119;51.788;8.824;2023-05-20T11:30:14;100588.75;;;18.08;54.48
74613;BME280;63119;51.788;8.824;2023-05-20T11:33:02;100594.34;;;17.95;54.17
74613;BME280;63119;51.788;8.824;2023-05-20T11:35:29;100588.72;;;17.98;54.52
74613;BME280;63119;51.788;8.824;2023-05-20T11:37:56;100587.22;;;18.25;54.87
74613;BME280;63119;51.788;8.824;2023-05-20T11:40:25;100589.25;;;17.92;56.51
74613;BME280;63119;51.788;8.824;2023-05-20T11:42:59;100590.03;;;17.74;56.47
74613;BME280;63119;51.788;8.824;2023-05-20T11:45:24;100582.38;;;17.60;56.82
74613;BME280;63119;51.788;8.824;2023-05-20T11:48:01;100590.63;;;17.77;56.15
74613;BME280;63119;51.788;8.824;2023-05-20T11:50:27;100588.50;;;17.51;56.52
74613;BME280;63119;51.788;8.824;2023-05-20T11:52:57;100586.47;;;17.43;56.59
74613;BME280;63119;51.788;8.824;2023-05-20T11:55:23;100588.69;;;17.89;56.07
74613;BME280;63119;51.788;8.824;2023-05-20T11:57:49;100580.94;;;17.56;56.14
74613;BME280;63119;51.788;8.824;2023-05-20T12:00:14;100579.72;;;18.09;55.01
74613;BME280;63119;51.788;8.824;2023-05-20T12:02:40;100566.03;;;17.93;55.18
74613;BME280;63119;51.788;8.824;2023-05-20T12:05:06;100558.56;;;18.06;55.27
74613;BME280;63119;51.788;8.824;2023-05-20T12:07:31;100560.00;;;18.20;54.44
74613;BME280;63119;51.788;8.824;2023-05-20T12:09:56;100553.16;;;17.77;55.08
74613;BME280;63119;51.788;8.824;2023-05-20T12:12:21;100548.19;;;18.61;53.38
74613;BME280;63119;51.788;8.824;2023-05-20T12:14:48;100547.34;;;18.41;54.25
74613;BME280;63119;51.788;8.824;2023-05-20T12:17:13;100551.56;;;18.43;54.42
74613;BME280;63119;51.788;8.824;2023-05-20T12:19:38;100554.25;;;18.43;54.05
74613;BME280;63119;51.788;8.824;2023-05-20T12:22:04;100542.72;;;18.81;53.82
74613;BME280;63119;51.788;8.824;2023-05-20T12:24:29;100557.53;;;18.57;54.33
74613;BME280;63119;51.788;8.824;2023-05-20T12:26:54;100539.25;;;19.08;53.06
74613;BME280;63119;51.788;8.824;2023-05-20T12:29:20;100551.03;;;18.78;52.91
74613;BME280;63119;51.788;8.824;2023-05-20T12:31:45;100546.50;;;18.79;53.75
74613;BME280;63119;51.788;8.824;2023-05-20T12:34:10;100539.38;;;19.16;52.60
74613;BME280;63119;51.788;8.824;2023-05-20T12:36:35;100532.22;;;18.88;53.13
74613;BME280;63119;51.788;8.824;2023-05-20T12:39:01;100534.69;;;18.62;54.11
74613;BME280;63119;51.788;8.824;2023-05-20T12:41:27;100538.88;;;18.36;54.79
74613;BME280;63119;51.788;8.824;2023-05-20T12:43:52;100538.63;;;18.77;53.50
74613;BME280;63119;51.788;8.824;2023-05-20T12:46:18;100545.63;;;18.40;53.62
74613;BME280;63119;51.788;8.824;2023-05-20T12:48:43;100530.00;;;18.74;53.87
74613;BME280;63119;51.788;8.824;2023-05-20T12:51:08;100530.28;;;18.71;53.84